createdAt,value
2022-10-09T00:00:00.231Z,9.3
2022-10-09T00:01:01.234Z,9.3
2022-10-09T00:02:00.294Z,9.3
2022-10-09T00:03:00.755Z,9.3
2022-10-09T00:04:00.250Z,9.3
2022-10-09T00:05:00.398Z,9.3
2022-10-09T00:06:01.091Z,9.2
2022-10-09T00:07:00.229Z,9.2
2022-10-09T00:08:00.279Z,9.2
2022-10-09T00:09:02.218Z,9.2
2022-10-09T00:10:00.281Z,9.2
2022-10-09T00:11:08.364Z,9.2
2022-10-09T00:12:00.252Z,9.2
2022-10-09T00:13:00.235Z,9.2
2022-10-09T00:14:00.722Z,9.2
2022-10-09T00:15:00.338Z,9.1
2022-10-09T00:16:04.252Z,9.1
2022-10-09T00:17:00.271Z,9.1
2022-10-09T00:18:00.231Z,9.1
2022-10-09T00:19:00.400Z,9.1
2022-10-09T00:20:00.530Z,9.1
2022-10-09T00:21:00.999Z,9.0
2022-10-09T00:22:00.241Z,9.0
2022-10-09T00:23:00.261Z,9.0
2022-10-09T00:24:02.820Z,9.0
2022-10-09T00:25:00.283Z,8.9
2022-10-09T00:26:01.063Z,8.9
2022-10-09T00:27:00.212Z,9.0
2022-10-09T00:28:01.158Z,8.9
2022-10-09T00:29:00.370Z,9.0
2022-10-09T00:30:00.240Z,8.9
2022-10-09T00:31:03.213Z,8.9
2022-10-09T00:32:00.283Z,8.9
2022-10-09T00:33:00.217Z,8.9
2022-10-09T00:34:00.246Z,8.9
2022-10-09T00:35:00.354Z,8.9
2022-10-09T00:36:04.845Z,8.9
2022-10-09T00:37:00.731Z,8.9
2022-10-09T00:38:00.234Z,8.9
2022-10-09T00:39:00.328Z,8.8
2022-10-09T00:40:00.240Z,8.8
2022-10-09T00:41:00.237Z,8.8
2022-10-09T00:42:00.568Z,8.8
2022-10-09T00:43:00.390Z,8.8
2022-10-09T00:44:12.625Z,8.8
2022-10-09T00:45:01.069Z,8.9
2022-10-09T00:46:00.320Z,8.8
2022-10-09T00:47:00.215Z,8.8
2022-10-09T00:48:04.008Z,8.8
2022-10-09T00:49:04.599Z,8.8
2022-10-09T00:50:05.971Z,8.8
2022-10-09T00:51:01.107Z,8.8
2022-10-09T00:52:03.455Z,8.8
2022-10-09T00:53:00.547Z,8.7
2022-10-09T00:54:02.364Z,8.7
2022-10-09T00:55:01.864Z,8.7
2022-10-09T00:56:00.325Z,8.7
2022-10-09T00:57:00.509Z,8.7
2022-10-09T00:58:01.326Z,8.7
2022-10-09T00:59:01.727Z,8.6
2022-10-09T01:00:04.482Z,8.6
2022-10-09T01:01:00.283Z,8.6
2022-10-09T01:02:00.398Z,8.6
2022-10-09T01:03:00.325Z,8.6
2022-10-09T01:04:00.257Z,8.5
2022-10-09T01:05:00.244Z,8.5
2022-10-09T01:06:11.224Z,8.5
2022-10-09T01:07:13.655Z,8.5
2022-10-09T01:08:09.301Z,8.5
2022-10-09T01:09:17.121Z,8.5
2022-10-09T01:10:08.499Z,8.5
2022-10-09T01:11:08.795Z,8.5
2022-10-09T01:12:10.820Z,8.5
2022-10-09T01:13:05.701Z,8.5
2022-10-09T01:14:11.046Z,8.5
2022-10-09T01:15:20.132Z,8.4
2022-10-09T01:16:05.218Z,8.4
2022-10-09T01:17:08.964Z,8.4
2022-10-09T01:18:09.892Z,8.4
2022-10-09T01:19:15.181Z,8.4
2022-10-09T01:20:10.156Z,8.4
2022-10-09T01:21:07.621Z,8.4
2022-10-09T01:22:17.394Z,8.3
2022-10-09T01:23:20.150Z,8.3
2022-10-09T01:24:11.180Z,8.3
2022-10-09T01:25:13.391Z,8.3
2022-10-09T01:26:17.520Z,8.3
2022-10-09T01:27:13.240Z,8.3
2022-10-09T01:28:03.796Z,8.3
2022-10-09T01:29:06.341Z,8.2
2022-10-09T01:30:05.201Z,8.2
2022-10-09T01:31:03.503Z,8.2
2022-10-09T01:32:01.407Z,8.2
2022-10-09T01:33:00.799Z,8.2
2022-10-09T01:34:00.608Z,8.2
2022-10-09T01:35:01.151Z,8.2
2022-10-09T01:36:02.489Z,8.2
2022-10-09T01:37:01.247Z,8.1
2022-10-09T01:38:01.916Z,8.1
2022-10-09T01:39:03.455Z,8.1
2022-10-09T01:40:02.109Z,8.1
2022-10-09T01:41:03.243Z,8.1
2022-10-09T01:42:01.106Z,8.1
2022-10-09T01:43:00.340Z,8.1
2022-10-09T01:44:00.410Z,8.1
2022-10-09T01:45:00.349Z,8.1
2022-10-09T01:46:17.816Z,8.1
2022-10-09T01:47:01.030Z,8.1
2022-10-09T01:48:01.409Z,8.0
2022-10-09T01:49:13.435Z,8.0
2022-10-09T01:50:14.685Z,8.0
2022-10-09T01:51:03.622Z,8.0
2022-10-09T01:52:13.125Z,8.0
2022-10-09T01:53:05.135Z,8.0
2022-10-09T01:54:04.669Z,8.0
2022-10-09T01:55:03.677Z,8.0
2022-10-09T01:56:07.944Z,8.0
2022-10-09T01:57:03.871Z,8.0
2022-10-09T01:58:17.551Z,8.0
2022-10-09T01:59:06.014Z,8.0
2022-10-09T02:00:05.118Z,7.9
2022-10-09T02:01:12.828Z,7.9
2022-10-09T02:02:00.378Z,8.0
2022-10-09T02:03:03.686Z,7.9
2022-10-09T02:04:04.225Z,7.9
2022-10-09T02:05:00.366Z,8.0
2022-10-09T02:06:03.093Z,8.0
2022-10-09T02:07:00.774Z,7.9
2022-10-09T02:08:00.794Z,7.9
2022-10-09T02:09:03.187Z,7.9
2022-10-09T02:10:02.421Z,7.9
2022-10-09T02:11:01.570Z,7.9
2022-10-09T02:12:05.577Z,7.8
2022-10-09T02:13:00.251Z,7.8
2022-10-09T02:14:00.497Z,7.8
2022-10-09T02:15:00.481Z,7.7
2022-10-09T02:16:20.176Z,7.7
2022-10-09T02:17:07.879Z,7.7
2022-10-09T02:18:07.905Z,7.7
2022-10-09T02:19:10.163Z,7.7
2022-10-09T02:20:11.139Z,7.6
2022-10-09T02:21:09.437Z,7.6
2022-10-09T02:22:09.886Z,7.6
2022-10-09T02:23:05.217Z,7.5
2022-10-09T02:24:01.151Z,7.5
2022-10-09T02:25:03.511Z,7.5
2022-10-09T02:26:00.253Z,7.5
2022-10-09T02:27:01.722Z,7.5
2022-10-09T02:28:01.143Z,7.5
2022-10-09T02:29:00.530Z,7.5
2022-10-09T02:30:01.870Z,7.5
2022-10-09T02:31:12.457Z,7.5
2022-10-09T02:32:00.423Z,7.5
2022-10-09T02:33:00.231Z,7.5
2022-10-09T02:34:03.442Z,7.5
2022-10-09T02:35:00.395Z,7.4
2022-10-09T02:36:00.702Z,7.5
2022-10-09T02:37:00.264Z,7.5
2022-10-09T02:38:00.203Z,7.4
2022-10-09T02:39:00.808Z,7.4
2022-10-09T02:40:00.255Z,7.4
2022-10-09T02:41:00.837Z,7.4
2022-10-09T02:42:00.243Z,7.4
2022-10-09T02:43:00.250Z,7.4
2022-10-09T02:44:01.067Z,7.3
2022-10-09T02:45:00.246Z,7.3
2022-10-09T02:46:00.314Z,7.3
2022-10-09T02:47:00.400Z,7.3
2022-10-09T02:48:00.218Z,7.3
2022-10-09T02:49:00.365Z,7.3
2022-10-09T02:50:00.241Z,7.3
2022-10-09T02:51:00.316Z,7.3
2022-10-09T02:52:00.219Z,7.3
2022-10-09T02:53:00.252Z,7.3
2022-10-09T02:54:00.759Z,7.2
2022-10-09T02:55:00.302Z,7.2
2022-10-09T02:56:00.386Z,7.2
2022-10-09T02:57:00.255Z,7.2
2022-10-09T02:58:00.273Z,7.2
2022-10-09T02:59:00.282Z,7.2
2022-10-09T03:00:00.301Z,7.2
2022-10-09T03:01:00.303Z,7.2
2022-10-09T03:02:01.402Z,7.2
2022-10-09T03:03:00.316Z,7.2
2022-10-09T03:04:00.578Z,7.2
2022-10-09T03:05:00.270Z,7.2
2022-10-09T03:06:02.988Z,7.2
2022-10-09T03:07:00.221Z,7.1
2022-10-09T03:08:00.245Z,7.1
2022-10-09T03:09:00.384Z,7.1
2022-10-09T03:10:00.263Z,7.1
2022-10-09T03:11:00.280Z,7.1
2022-10-09T03:12:00.257Z,7.1
2022-10-09T03:13:00.223Z,7.1
2022-10-09T03:14:00.436Z,7.1
2022-10-09T03:15:00.234Z,7.1
2022-10-09T03:16:05.245Z,7.0
2022-10-09T03:17:00.257Z,7.0
2022-10-09T03:18:00.298Z,7.0
2022-10-09T03:19:00.244Z,7.0
2022-10-09T03:20:00.255Z,7.0
2022-10-09T03:21:03.499Z,7.0
2022-10-09T03:22:00.218Z,7.1
2022-10-09T03:23:00.234Z,7.1
2022-10-09T03:24:00.232Z,7.1
2022-10-09T03:25:00.290Z,7.1
2022-10-09T03:26:03.113Z,7.1
2022-10-09T03:27:00.228Z,7.0
2022-10-09T03:28:00.234Z,7.0
2022-10-09T03:29:00.214Z,7.1
2022-10-09T03:30:00.218Z,7.0
2022-10-09T03:31:00.326Z,7.0
2022-10-09T03:32:00.307Z,7.0
2022-10-09T03:33:00.229Z,7.0
2022-10-09T03:34:00.233Z,7.0
2022-10-09T03:35:00.234Z,7.0
2022-10-09T03:36:01.070Z,7.1
2022-10-09T03:37:00.212Z,7.1
2022-10-09T03:38:00.216Z,7.1
2022-10-09T03:39:00.241Z,7.1
2022-10-09T03:40:00.261Z,7.0
2022-10-09T03:41:02.287Z,7.0
2022-10-09T03:42:00.206Z,7.0
2022-10-09T03:43:00.221Z,7.0
2022-10-09T03:44:00.279Z,7.0
2022-10-09T03:45:00.283Z,7.0
2022-10-09T03:46:05.006Z,7.0
2022-10-09T03:47:00.339Z,7.0
2022-10-09T03:48:00.254Z,6.9
2022-10-09T03:49:00.236Z,6.9
2022-10-09T03:50:00.228Z,6.9
2022-10-09T03:51:00.365Z,6.9
2022-10-09T03:52:00.238Z,6.9
2022-10-09T03:53:00.213Z,6.9
2022-10-09T03:54:00.223Z,6.9
2022-10-09T03:55:00.341Z,6.8
2022-10-09T03:56:00.343Z,6.8
2022-10-09T03:57:00.255Z,6.9
2022-10-09T03:58:00.509Z,6.8
2022-10-09T03:59:00.250Z,6.8
2022-10-09T04:00:00.247Z,6.8
2022-10-09T04:01:00.318Z,6.8
2022-10-09T04:02:00.209Z,6.8
2022-10-09T04:03:00.332Z,6.8
2022-10-09T04:04:00.362Z,6.8
2022-10-09T04:05:00.281Z,6.8
2022-10-09T04:06:00.227Z,6.8
2022-10-09T04:07:00.221Z,6.8
2022-10-09T04:08:00.405Z,6.8
2022-10-09T04:09:00.238Z,6.8
2022-10-09T04:10:00.473Z,6.8
2022-10-09T04:11:00.913Z,6.8
2022-10-09T04:12:00.249Z,6.8
2022-10-09T04:13:00.250Z,6.8
2022-10-09T04:14:00.762Z,6.8
2022-10-09T04:15:00.285Z,6.8
2022-10-09T04:16:00.502Z,6.8
2022-10-09T04:17:00.268Z,6.8
2022-10-09T04:18:00.227Z,6.7
2022-10-09T04:19:00.227Z,6.7
2022-10-09T04:20:00.360Z,6.7
2022-10-09T04:21:00.249Z,6.7
2022-10-09T04:22:00.222Z,6.7
2022-10-09T04:23:00.223Z,6.7
2022-10-09T04:24:00.226Z,6.7
2022-10-09T04:25:00.238Z,6.7
2022-10-09T04:26:00.245Z,6.7
2022-10-09T04:27:00.244Z,6.7
2022-10-09T04:28:00.249Z,6.7
2022-10-09T04:29:00.350Z,6.7
2022-10-09T04:30:00.262Z,6.7
2022-10-09T04:31:00.479Z,6.8
2022-10-09T04:32:00.344Z,6.8
2022-10-09T04:33:00.216Z,6.8
2022-10-09T04:34:00.252Z,6.8
2022-10-09T04:35:00.385Z,6.8
2022-10-09T04:36:00.246Z,6.8
2022-10-09T04:37:00.227Z,6.8
2022-10-09T04:38:00.227Z,6.8
2022-10-09T04:39:00.394Z,6.8
2022-10-09T04:40:00.227Z,6.8
2022-10-09T04:41:03.079Z,6.8
2022-10-09T04:42:00.257Z,6.8
2022-10-09T04:43:00.219Z,6.8
2022-10-09T04:44:00.244Z,6.8
2022-10-09T04:45:00.268Z,6.8
2022-10-09T04:46:04.768Z,6.8
2022-10-09T04:47:00.233Z,6.8
2022-10-09T04:48:00.222Z,6.8
2022-10-09T04:49:00.273Z,6.7
2022-10-09T04:50:00.242Z,6.8
2022-10-09T04:51:03.490Z,6.8
2022-10-09T04:52:00.246Z,6.8
2022-10-09T04:53:00.259Z,6.8
2022-10-09T04:54:00.909Z,6.8
2022-10-09T04:55:00.295Z,6.8
2022-10-09T04:56:03.094Z,6.8
2022-10-09T04:57:00.242Z,6.8
2022-10-09T04:58:00.226Z,6.8
2022-10-09T04:59:00.237Z,6.8
2022-10-09T05:00:00.239Z,6.8
2022-10-09T05:01:04.938Z,6.8
2022-10-09T05:02:00.388Z,6.7
2022-10-09T05:03:00.282Z,6.7
2022-10-09T05:04:00.258Z,6.7
2022-10-09T05:05:00.244Z,6.7
2022-10-09T05:06:01.462Z,6.7
2022-10-09T05:07:00.296Z,6.7
2022-10-09T05:08:00.245Z,6.7
2022-10-09T05:09:00.293Z,6.7
2022-10-09T05:10:00.262Z,6.7
2022-10-09T05:11:00.808Z,6.7
2022-10-09T05:12:00.258Z,6.7
2022-10-09T05:13:00.245Z,6.7
2022-10-09T05:14:00.248Z,6.7
2022-10-09T05:15:00.316Z,6.7
2022-10-09T05:16:01.113Z,6.7
2022-10-09T05:17:13.622Z,6.7
2022-10-09T05:18:00.226Z,6.7
2022-10-09T05:19:00.262Z,6.7
2022-10-09T05:20:00.245Z,6.7
2022-10-09T05:21:04.418Z,6.8
2022-10-09T05:22:00.241Z,6.9
2022-10-09T05:23:00.227Z,6.9
2022-10-09T05:24:00.213Z,7.0
2022-10-09T05:25:00.364Z,7.0
2022-10-09T05:26:03.050Z,7.1
2022-10-09T05:27:00.247Z,7.2
2022-10-09T05:28:00.400Z,7.3
2022-10-09T05:29:00.245Z,7.4
2022-10-09T05:30:00.664Z,7.5
2022-10-09T05:31:03.504Z,7.6
2022-10-09T05:32:00.261Z,7.7
2022-10-09T05:33:00.252Z,7.8
2022-10-09T05:34:00.405Z,8.0
2022-10-09T05:35:00.270Z,8.1
2022-10-09T05:36:03.691Z,8.2
2022-10-09T05:37:00.329Z,8.3
2022-10-09T05:38:00.237Z,8.4
2022-10-09T05:39:00.240Z,8.6
2022-10-09T05:40:00.224Z,8.7
2022-10-09T05:41:03.461Z,8.8
2022-10-09T05:42:00.576Z,8.9
2022-10-09T05:43:00.216Z,9.0
2022-10-09T05:44:01.162Z,9.2
2022-10-09T05:45:00.235Z,9.3
2022-10-09T05:46:05.230Z,9.4
2022-10-09T05:47:00.213Z,9.5
2022-10-09T05:48:00.215Z,9.6
2022-10-09T05:49:03.258Z,9.8
2022-10-09T05:50:00.317Z,9.9
2022-10-09T05:51:12.196Z,10.1
2022-10-09T05:52:00.246Z,10.1
2022-10-09T05:53:00.227Z,10.3
2022-10-09T05:54:00.392Z,10.5
2022-10-09T05:55:00.296Z,10.6
2022-10-09T05:56:11.206Z,10.7
2022-10-09T05:57:00.231Z,10.8
2022-10-09T05:58:00.338Z,10.9
2022-10-09T05:59:04.463Z,11.0
2022-10-09T06:00:00.254Z,11.0
2022-10-09T06:01:00.343Z,11.1
2022-10-09T06:02:00.270Z,11.2
2022-10-09T06:03:00.218Z,11.3
2022-10-09T06:04:01.197Z,11.4
2022-10-09T06:05:00.246Z,11.6
2022-10-09T06:06:02.008Z,11.7
2022-10-09T06:07:00.225Z,11.9
2022-10-09T06:08:00.226Z,12.0
2022-10-09T06:09:00.368Z,12.0
2022-10-09T06:10:00.230Z,12.1
2022-10-09T06:11:11.393Z,12.2
2022-10-09T06:12:00.272Z,12.3
2022-10-09T06:13:00.210Z,12.4
2022-10-09T06:14:02.331Z,12.4
2022-10-09T06:15:00.267Z,12.4
2022-10-09T06:16:00.221Z,12.6
2022-10-09T06:17:00.302Z,12.8
2022-10-09T06:18:00.211Z,12.9
2022-10-09T06:19:01.022Z,12.9
2022-10-09T06:20:00.252Z,12.9
2022-10-09T06:21:01.096Z,12.8
2022-10-09T06:22:00.238Z,12.6
2022-10-09T06:23:00.246Z,12.9
2022-10-09T06:24:02.800Z,13.2
2022-10-09T06:25:00.256Z,13.4
2022-10-09T06:26:03.305Z,13.4
2022-10-09T06:27:00.258Z,13.5
2022-10-09T06:28:00.218Z,13.5
2022-10-09T06:29:01.794Z,13.5
2022-10-09T06:30:00.233Z,13.7
2022-10-09T06:31:02.222Z,13.7
2022-10-09T06:32:00.224Z,13.5
2022-10-09T06:33:00.218Z,13.5
2022-10-09T06:34:01.216Z,13.6
2022-10-09T06:35:00.269Z,13.9
2022-10-09T06:36:09.805Z,13.9
2022-10-09T06:37:00.239Z,13.9
2022-10-09T06:38:00.214Z,13.9
2022-10-09T06:39:02.677Z,13.9
2022-10-09T06:40:00.274Z,14.0
2022-10-09T06:41:02.046Z,14.0
2022-10-09T06:42:00.238Z,13.9
2022-10-09T06:43:00.219Z,14.1
2022-10-09T06:44:02.648Z,14.1
2022-10-09T06:45:00.238Z,14.2
2022-10-09T06:46:03.150Z,14.4
2022-10-09T06:47:00.215Z,14.5
2022-10-09T06:48:00.237Z,14.5
2022-10-09T06:49:01.090Z,14.4
2022-10-09T06:50:00.219Z,14.6
2022-10-09T06:51:01.692Z,14.6
2022-10-09T06:52:00.270Z,14.6
2022-10-09T06:53:00.224Z,14.6
2022-10-09T06:54:04.022Z,14.7
2022-10-09T06:55:00.344Z,14.7
2022-10-09T06:56:00.313Z,14.8
2022-10-09T06:57:00.245Z,14.9
2022-10-09T06:58:00.265Z,14.8
2022-10-09T06:59:02.121Z,15.0
2022-10-09T07:00:00.226Z,14.9
2022-10-09T07:01:01.072Z,15.0
2022-10-09T07:02:00.345Z,15.2
2022-10-09T07:03:00.343Z,15.2
2022-10-09T07:04:02.278Z,15.6
2022-10-09T07:05:00.238Z,15.6
2022-10-09T07:06:11.356Z,15.6
2022-10-09T07:07:00.216Z,15.6
2022-10-09T07:08:00.216Z,15.6
2022-10-09T07:09:03.122Z,15.5
2022-10-09T07:10:00.229Z,15.7
2022-10-09T07:11:06.603Z,15.8
2022-10-09T07:12:00.261Z,15.7
2022-10-09T07:13:00.221Z,15.5
2022-10-09T07:14:02.625Z,15.9
2022-10-09T07:15:00.575Z,15.8
2022-10-09T07:16:04.012Z,15.6
2022-10-09T07:17:00.232Z,15.8
2022-10-09T07:18:01.545Z,15.8
2022-10-09T07:19:00.301Z,15.8
2022-10-09T07:20:00.222Z,15.9
2022-10-09T07:21:01.405Z,16.1
2022-10-09T07:22:00.340Z,16.1
2022-10-09T07:23:00.209Z,16.2
2022-10-09T07:24:00.546Z,15.8
2022-10-09T07:25:00.270Z,15.8
2022-10-09T07:26:01.277Z,16.0
2022-10-09T07:27:00.233Z,15.9
2022-10-09T07:28:00.209Z,16.0
2022-10-09T07:29:01.085Z,15.9
2022-10-09T07:30:00.411Z,16.1
2022-10-09T07:31:02.467Z,16.1
2022-10-09T07:32:00.218Z,16.3
2022-10-09T07:33:00.231Z,16.3
2022-10-09T07:34:00.263Z,16.5
2022-10-09T07:35:00.255Z,16.6
2022-10-09T07:36:01.830Z,16.7
2022-10-09T07:37:00.230Z,16.6
2022-10-09T07:38:00.224Z,16.6
2022-10-09T07:39:01.083Z,16.5
2022-10-09T07:40:00.223Z,16.5
2022-10-09T07:41:02.780Z,16.6
2022-10-09T07:42:01.000Z,16.8
2022-10-09T07:43:00.689Z,16.9
2022-10-09T07:44:00.477Z,17.0
2022-10-09T07:45:00.297Z,17.3
2022-10-09T07:46:01.134Z,17.3
2022-10-09T07:47:00.238Z,17.2
2022-10-09T07:48:00.224Z,17.1
2022-10-09T07:49:01.391Z,17.1
2022-10-09T07:50:00.221Z,17.0
2022-10-09T07:51:09.655Z,17.1
2022-10-09T07:52:00.209Z,16.7
2022-10-09T07:53:00.418Z,16.7
2022-10-09T07:54:00.494Z,16.9
2022-10-09T07:55:00.442Z,16.8
2022-10-09T07:56:00.226Z,17.0
2022-10-09T07:57:00.236Z,17.1
2022-10-09T07:58:00.215Z,17.2
2022-10-09T07:59:02.110Z,17.2
2022-10-09T08:00:00.231Z,17.4
2022-10-09T08:01:04.057Z,17.4
2022-10-09T08:02:00.271Z,17.2
2022-10-09T08:03:00.325Z,17.2
2022-10-09T08:04:00.739Z,17.3
2022-10-09T08:05:00.383Z,17.2
2022-10-09T08:06:00.292Z,17.4
2022-10-09T08:07:00.211Z,17.5
2022-10-09T08:08:00.692Z,17.8
2022-10-09T08:09:01.862Z,17.9
2022-10-09T08:10:00.312Z,17.9
2022-10-09T08:11:07.667Z,17.5
2022-10-09T08:12:00.240Z,17.3
2022-10-09T08:13:00.217Z,17.5
2022-10-09T08:14:00.314Z,17.2
2022-10-09T08:15:00.411Z,16.5
2022-10-09T08:16:00.265Z,16.0
2022-10-09T08:17:00.225Z,16.2
2022-10-09T08:18:00.213Z,16.5
2022-10-09T08:19:01.149Z,16.9
2022-10-09T08:20:00.216Z,17.1
2022-10-09T08:21:05.199Z,17.4
2022-10-09T08:22:03.477Z,17.4
2022-10-09T08:23:00.729Z,17.4
2022-10-09T08:24:00.249Z,16.4
2022-10-09T08:25:00.317Z,15.3
2022-10-09T08:26:00.429Z,14.9
2022-10-09T08:27:00.241Z,15.3
2022-10-09T08:28:00.217Z,15.4
2022-10-09T08:29:03.726Z,15.8
2022-10-09T08:30:00.244Z,16.3
2022-10-09T08:31:09.018Z,15.9
2022-10-09T08:32:00.250Z,16.1
2022-10-09T08:33:00.221Z,14.9
2022-10-09T08:34:02.422Z,14.0
2022-10-09T08:35:00.345Z,14.1
2022-10-09T08:36:05.897Z,14.2
2022-10-09T08:37:00.252Z,14.0
2022-10-09T08:38:00.239Z,13.7
2022-10-09T08:39:00.210Z,14.1
2022-10-09T08:40:00.422Z,14.7
2022-10-09T08:41:05.977Z,14.5
2022-10-09T08:42:00.547Z,14.8
2022-10-09T08:43:04.305Z,15.2
2022-10-09T08:44:04.526Z,15.6
2022-10-09T08:45:01.183Z,15.7
2022-10-09T08:46:05.465Z,16.0
2022-10-09T08:47:00.196Z,15.8
2022-10-09T08:48:06.847Z,15.9
2022-10-09T08:49:03.366Z,16.1
2022-10-09T08:50:03.667Z,16.0
2022-10-09T08:51:02.152Z,16.0
2022-10-09T08:52:15.656Z,16.6
2022-10-09T08:53:20.141Z,16.9
2022-10-09T08:54:10.464Z,16.9
2022-10-09T08:55:10.311Z,17.2
2022-10-09T08:56:03.577Z,17.4
2022-10-09T08:57:03.755Z,17.6
2022-10-09T08:58:03.515Z,17.5
2022-10-09T08:59:01.153Z,17.5
2022-10-09T09:00:00.273Z,17.5
2022-10-09T09:01:13.490Z,17.6
2022-10-09T09:02:18.021Z,17.5
2022-10-09T09:03:20.118Z,17.6
2022-10-09T09:04:13.470Z,17.6
2022-10-09T09:05:18.619Z,17.0
2022-10-09T09:06:08.518Z,17.0
2022-10-09T09:07:12.194Z,17.0
2022-10-09T09:08:01.255Z,16.6
2022-10-09T09:09:10.211Z,16.2
2022-10-09T09:10:12.209Z,15.9
2022-10-09T09:11:21.466Z,15.5
2022-10-09T09:12:13.625Z,15.5
2022-10-09T09:13:11.174Z,15.3
2022-10-09T09:14:20.142Z,15.0
2022-10-09T09:15:15.567Z,14.9
2022-10-09T09:16:10.668Z,14.9
2022-10-09T09:17:10.107Z,14.7
2022-10-09T09:18:10.181Z,14.7
2022-10-09T09:19:12.013Z,14.3
2022-10-09T09:20:08.683Z,14.1
2022-10-09T09:21:14.233Z,14.1
2022-10-09T09:22:00.427Z,14.1
2022-10-09T09:23:00.940Z,14.1
2022-10-09T09:24:05.836Z,14.2
2022-10-09T09:25:15.757Z,14.2
2022-10-09T09:26:00.736Z,14.2
2022-10-09T09:27:03.217Z,14.2
2022-10-09T09:28:16.980Z,14.0
2022-10-09T09:29:03.897Z,14.0
2022-10-09T09:30:03.667Z,14.0
2022-10-09T09:31:14.809Z,13.6
2022-10-09T09:32:00.294Z,13.6
2022-10-09T09:33:07.710Z,13.4
2022-10-09T09:34:07.929Z,13.5
2022-10-09T09:35:12.028Z,13.5
2022-10-09T09:36:13.090Z,13.6
2022-10-09T09:37:00.615Z,13.5
2022-10-09T09:38:00.670Z,13.5
2022-10-09T09:41:00.978Z,13.6
2022-10-09T09:42:12.071Z,13.6
2022-10-09T09:43:04.780Z,13.6
2022-10-09T09:44:00.227Z,13.6
2022-10-09T09:45:05.136Z,13.6
2022-10-09T09:46:01.267Z,13.6
2022-10-09T09:47:01.024Z,13.5
2022-10-09T09:48:10.320Z,13.4
2022-10-09T09:49:00.266Z,13.3
2022-10-09T09:50:02.494Z,13.0
2022-10-09T09:51:16.082Z,12.9
2022-10-09T09:52:00.793Z,12.9
2022-10-09T09:53:06.075Z,13.0
2022-10-09T09:54:05.200Z,12.9
2022-10-09T09:55:00.687Z,12.9
2022-10-09T09:56:00.380Z,12.8
2022-10-09T09:57:12.828Z,12.8
2022-10-09T09:58:06.849Z,12.8
2022-10-09T09:59:00.350Z,12.9
2022-10-09T10:00:16.229Z,13.0
2022-10-09T10:01:01.825Z,13.0
2022-10-09T10:02:13.042Z,13.0
2022-10-09T10:03:11.784Z,13.0
2022-10-09T10:04:03.480Z,13.0
2022-10-09T10:05:11.080Z,12.7
2022-10-09T10:06:00.430Z,12.6
2022-10-09T10:07:00.249Z,12.5
2022-10-09T10:08:00.249Z,12.3
2022-10-09T10:09:01.464Z,12.1
2022-10-09T10:10:14.979Z,12.1
2022-10-09T10:11:04.779Z,12.1
2022-10-09T10:12:02.443Z,12.2
2022-10-09T10:13:00.303Z,12.3
2022-10-09T10:14:08.563Z,12.2
2022-10-09T10:15:00.559Z,12.3
2022-10-09T10:16:00.913Z,12.3
2022-10-09T10:17:01.080Z,12.3
2022-10-09T10:18:04.230Z,12.4
2022-10-09T10:19:00.269Z,12.4
2022-10-09T10:20:05.254Z,12.3
2022-10-09T10:21:05.749Z,12.3
2022-10-09T10:22:05.057Z,12.4
2022-10-09T10:23:00.251Z,12.4
2022-10-09T10:24:03.792Z,12.5
2022-10-09T10:25:00.643Z,12.5
2022-10-09T10:26:20.129Z,12.7
2022-10-09T10:27:13.271Z,12.7
2022-10-09T10:28:11.793Z,12.8
2022-10-09T10:29:08.690Z,12.8
2022-10-09T10:30:03.954Z,12.8
2022-10-09T10:31:04.755Z,12.7
2022-10-09T10:32:12.290Z,12.5
2022-10-09T10:33:15.792Z,12.4
2022-10-09T10:34:03.918Z,12.4
2022-10-09T10:35:05.423Z,12.5
2022-10-09T10:36:00.479Z,12.5
2022-10-09T10:37:09.500Z,12.5
2022-10-09T10:38:06.200Z,12.6
2022-10-09T10:39:10.990Z,12.7
2022-10-09T10:40:06.434Z,12.7
2022-10-09T10:41:13.285Z,12.7
2022-10-09T10:42:04.829Z,12.8
2022-10-09T10:43:06.591Z,12.7
2022-10-09T10:44:06.734Z,12.7
2022-10-09T10:45:20.159Z,12.5
2022-10-09T10:46:14.422Z,12.5
2022-10-09T10:47:04.832Z,12.6
2022-10-09T10:48:02.446Z,12.6
2022-10-09T10:49:00.251Z,12.7
2022-10-09T10:50:00.584Z,12.6
2022-10-09T10:51:17.608Z,12.5
2022-10-09T10:52:11.193Z,12.5
2022-10-09T10:53:18.918Z,12.6
2022-10-09T10:54:10.833Z,12.6
2022-10-09T10:55:11.379Z,12.6
2022-10-09T10:56:08.018Z,12.6
2022-10-09T10:57:08.610Z,12.6
2022-10-09T10:58:18.064Z,12.7
2022-10-09T10:59:10.170Z,12.7
2022-10-09T11:00:10.360Z,12.8
2022-10-09T11:01:13.105Z,12.8
2022-10-09T11:02:20.144Z,12.8
2022-10-09T11:03:10.241Z,12.8
2022-10-09T11:04:11.197Z,12.8
2022-10-09T11:05:14.549Z,12.9
2022-10-09T11:06:09.533Z,12.9
2022-10-09T11:07:01.227Z,13.0
2022-10-09T11:08:12.873Z,13.0
2022-10-09T11:09:20.123Z,13.0
2022-10-09T11:10:01.215Z,13.0
2022-10-09T11:11:04.643Z,12.9
2022-10-09T11:12:19.552Z,13.0
2022-10-09T11:13:20.148Z,13.0
2022-10-09T11:14:10.173Z,13.0
2022-10-09T11:15:20.131Z,13.0
2022-10-09T11:16:16.774Z,12.9
2022-10-09T11:17:08.617Z,12.9
2022-10-09T11:18:20.125Z,12.9
2022-10-09T11:19:20.143Z,12.8
2022-10-09T11:20:11.174Z,12.8
2022-10-09T11:21:11.711Z,12.8
2022-10-09T11:22:12.845Z,12.8
2022-10-09T11:23:11.169Z,12.8
2022-10-09T11:24:20.120Z,12.7
2022-10-09T11:25:18.077Z,12.7
2022-10-09T11:26:12.414Z,12.7
2022-10-09T11:27:03.658Z,12.7
2022-10-09T11:28:05.987Z,12.7
2022-10-09T11:29:07.298Z,12.6
2022-10-09T11:30:04.600Z,12.6
2022-10-09T11:31:07.613Z,12.6
2022-10-09T11:32:03.293Z,12.6
2022-10-09T11:33:03.202Z,12.6
2022-10-09T11:34:08.033Z,12.6
2022-10-09T11:35:04.859Z,12.6
2022-10-09T11:36:09.226Z,12.7
2022-10-09T11:37:00.805Z,12.7
2022-10-09T11:38:02.723Z,12.7
2022-10-09T11:39:03.919Z,12.7
2022-10-09T11:40:06.428Z,12.7
2022-10-09T11:41:06.491Z,12.8
2022-10-09T11:42:00.423Z,12.8
2022-10-09T11:43:08.702Z,12.8
2022-10-09T11:44:20.129Z,12.8
2022-10-09T11:45:13.494Z,12.8
2022-10-09T11:46:06.195Z,12.8
2022-10-09T11:47:09.960Z,12.9
2022-10-09T11:48:17.884Z,12.9
2022-10-09T11:49:01.225Z,12.9
2022-10-09T11:50:10.185Z,12.9
2022-10-09T11:51:20.121Z,12.9
2022-10-09T11:52:15.736Z,12.9
2022-10-09T11:53:07.784Z,12.9
2022-10-09T11:54:02.830Z,12.9
2022-10-09T11:55:20.133Z,13.0
2022-10-09T11:56:02.597Z,13.0
2022-10-09T11:57:05.924Z,13.0
2022-10-09T11:58:08.563Z,13.0
2022-10-09T11:59:03.097Z,13.1
2022-10-09T12:00:05.644Z,13.1
2022-10-09T12:01:12.422Z,13.1
2022-10-09T12:02:19.980Z,13.1
2022-10-09T12:03:03.967Z,13.1
2022-10-09T12:04:11.206Z,13.1
2022-10-09T12:05:00.526Z,13.1
2022-10-09T12:06:15.849Z,13.1
2022-10-09T12:07:03.302Z,13.1
2022-10-09T12:08:12.058Z,13.1
2022-10-09T12:09:06.085Z,13.1
2022-10-09T12:10:07.899Z,13.1
2022-10-09T12:11:13.027Z,13.1
2022-10-09T12:12:06.206Z,13.2
2022-10-09T12:13:05.032Z,13.2
2022-10-09T12:14:04.411Z,13.2
2022-10-09T12:15:19.653Z,13.2
2022-10-09T12:16:00.237Z,13.2
2022-10-09T12:17:00.926Z,13.3
2022-10-09T12:18:00.377Z,13.3
2022-10-09T12:19:11.181Z,13.3
2022-10-09T12:20:04.904Z,13.3
2022-10-09T12:21:03.664Z,13.3
2022-10-09T12:22:11.584Z,13.4
2022-10-09T12:23:25.834Z,13.4
2022-10-09T12:24:00.379Z,13.4
2022-10-09T12:25:06.652Z,13.4
2022-10-09T12:26:01.002Z,13.5
2022-10-09T12:27:01.659Z,13.5
2022-10-09T12:28:00.538Z,13.5
2022-10-09T12:29:02.558Z,13.5
2022-10-09T12:30:10.170Z,13.5
2022-10-09T12:31:04.064Z,13.5
2022-10-09T12:32:05.401Z,13.5
2022-10-09T12:33:11.595Z,13.5
2022-10-09T12:34:05.101Z,13.6
2022-10-09T12:35:13.294Z,13.5
2022-10-09T12:36:12.476Z,13.5
2022-10-09T12:37:09.843Z,13.5
2022-10-09T12:38:00.654Z,13.5
2022-10-09T12:39:12.667Z,13.5
2022-10-09T12:40:13.248Z,13.5
2022-10-09T12:41:03.508Z,13.5
2022-10-09T12:42:01.117Z,13.5
2022-10-09T12:43:06.739Z,13.5
2022-10-09T12:44:02.277Z,13.5
2022-10-09T12:45:00.299Z,13.5
2022-10-09T12:46:00.650Z,13.5
2022-10-09T12:47:08.468Z,13.5
2022-10-09T12:48:08.991Z,13.5
2022-10-09T12:49:03.719Z,13.5
2022-10-09T12:50:17.647Z,13.5
2022-10-09T12:51:00.232Z,13.5
2022-10-09T12:52:00.669Z,13.5
2022-10-09T12:53:06.286Z,13.5
2022-10-09T12:54:07.266Z,13.6
2022-10-09T12:55:00.903Z,13.6
2022-10-09T12:56:00.276Z,13.6
2022-10-09T12:57:00.977Z,13.6
2022-10-09T12:58:03.987Z,13.6
2022-10-09T12:59:00.734Z,13.6
2022-10-09T13:00:00.391Z,13.6
2022-10-09T13:01:04.223Z,13.7
2022-10-09T13:02:01.568Z,13.7
2022-10-09T13:03:00.628Z,13.6
2022-10-09T13:04:01.936Z,13.7
2022-10-09T13:05:00.391Z,13.7
2022-10-09T13:06:02.233Z,13.8
2022-10-09T13:07:05.759Z,13.8
2022-10-09T13:08:00.299Z,13.9
2022-10-09T13:09:04.199Z,13.9
2022-10-09T13:10:18.823Z,14.0
2022-10-09T13:11:10.678Z,14.0
2022-10-09T13:12:14.416Z,14.0
2022-10-09T13:13:00.417Z,14.0
2022-10-09T13:14:00.621Z,14.0
2022-10-09T13:15:03.994Z,14.0
2022-10-09T13:16:03.929Z,14.0
2022-10-09T13:17:01.325Z,14.0
2022-10-09T13:18:12.136Z,13.9
2022-10-09T13:19:03.299Z,13.9
2022-10-09T13:20:11.195Z,13.9
2022-10-09T13:21:10.162Z,13.9
2022-10-09T13:22:17.525Z,13.8
2022-10-09T13:23:02.867Z,13.8
2022-10-09T13:24:09.291Z,13.8
2022-10-09T13:25:00.226Z,13.8
2022-10-09T13:26:03.759Z,13.8
2022-10-09T13:27:02.246Z,13.8
2022-10-09T13:28:01.968Z,13.8
2022-10-09T13:29:00.390Z,13.8
2022-10-09T13:30:00.569Z,13.8
2022-10-09T13:31:07.758Z,13.8
2022-10-09T13:32:00.252Z,13.8